createdAt,value
2022-07-31T00:00:42.492Z,1.40
2022-07-31T00:01:42.481Z,2.00
2022-07-31T00:02:42.475Z,2.00
2022-07-31T00:03:42.504Z,1.60
2022-07-31T00:04:42.473Z,1.80
2022-07-31T00:05:42.592Z,1.70
2022-07-31T00:06:42.433Z,1.70
2022-07-31T00:07:42.420Z,1.70
2022-07-31T00:08:42.412Z,2.20
2022-07-31T00:09:51.633Z,1.80
2022-07-31T00:10:42.406Z,1.70
2022-07-31T00:11:42.379Z,1.70
2022-07-31T00:12:42.377Z,1.80
2022-07-31T00:13:56.668Z,1.60
2022-07-31T00:14:42.373Z,1.80
2022-07-31T00:15:42.343Z,1.30
2022-07-31T00:16:42.336Z,1.60
2022-07-31T00:17:42.320Z,1.30
2022-07-31T00:18:42.314Z,1.50
2022-07-31T00:19:42.314Z,1.60
2022-07-31T00:20:42.294Z,1.90
2022-07-31T00:21:42.285Z,1.60
2022-07-31T00:22:42.287Z,1.50
2022-07-31T00:23:42.260Z,1.70
2022-07-31T00:24:42.273Z,1.30
2022-07-31T00:25:42.242Z,1.70
2022-07-31T00:26:42.236Z,1.80
2022-07-31T00:27:42.224Z,1.40
2022-07-31T00:28:42.216Z,2.10
2022-07-31T00:29:42.216Z,1.20
2022-07-31T00:30:42.198Z,1.50
2022-07-31T00:31:42.184Z,1.70
2022-07-31T00:32:42.195Z,2.00
2022-07-31T00:33:42.164Z,1.60
2022-07-31T00:34:42.173Z,1.70
2022-07-31T00:35:42.151Z,1.60
2022-07-31T00:36:42.143Z,1.50
2022-07-31T00:37:42.124Z,1.40
2022-07-31T00:38:42.119Z,1.60
2022-07-31T00:39:42.115Z,1.70
2022-07-31T00:40:42.102Z,1.70
2022-07-31T00:41:42.086Z,1.50
2022-07-31T00:42:42.080Z,1.60
2022-07-31T00:43:42.072Z,1.80
2022-07-31T00:44:42.071Z,1.50
2022-07-31T00:45:42.052Z,1.60
2022-07-31T00:46:42.259Z,1.40
2022-07-31T00:47:42.034Z,1.70
2022-07-31T00:48:42.019Z,1.50
2022-07-31T00:49:42.027Z,1.60
2022-07-31T00:50:41.999Z,1.60
2022-07-31T00:51:41.999Z,1.50
2022-07-31T00:52:41.978Z,1.20
2022-07-31T00:53:41.976Z,1.30
2022-07-31T00:54:41.977Z,1.40
2022-07-31T00:55:51.694Z,1.30
2022-07-31T00:56:41.945Z,1.80
2022-07-31T00:57:41.938Z,1.60
2022-07-31T00:58:41.921Z,1.60
2022-07-31T00:59:41.929Z,1.60
2022-07-31T01:00:41.947Z,2.00
2022-07-31T01:01:41.898Z,1.40
2022-07-31T01:02:46.261Z,1.70
2022-07-31T01:03:41.877Z,1.80
2022-07-31T01:04:41.941Z,1.60
2022-07-31T01:05:41.967Z,1.40
2022-07-31T01:06:42.761Z,1.80
2022-07-31T01:07:41.840Z,1.60
2022-07-31T01:08:41.827Z,1.40
2022-07-31T01:09:41.832Z,2.10
2022-07-31T01:10:41.805Z,1.80
2022-07-31T01:11:41.821Z,1.80
2022-07-31T01:12:41.786Z,1.50
2022-07-31T01:13:41.777Z,1.80
2022-07-31T01:14:41.777Z,1.60
2022-07-31T01:15:41.764Z,1.50
2022-07-31T01:16:41.748Z,1.90
2022-07-31T01:17:41.740Z,1.60
2022-07-31T01:18:41.730Z,1.40
2022-07-31T01:19:43.168Z,1.80
2022-07-31T01:20:41.708Z,1.20
2022-07-31T01:21:41.703Z,1.40
2022-07-31T01:22:41.689Z,1.70
2022-07-31T01:23:41.683Z,1.30
2022-07-31T01:24:41.692Z,1.60
2022-07-31T01:25:41.664Z,1.90
2022-07-31T01:26:41.647Z,1.60
2022-07-31T01:27:49.164Z,1.80
2022-07-31T01:28:41.636Z,1.60
2022-07-31T01:29:41.637Z,1.50
2022-07-31T01:30:41.614Z,1.50
2022-07-31T01:31:41.608Z,1.40
2022-07-31T01:32:41.592Z,1.60
2022-07-31T01:33:41.592Z,1.50
2022-07-31T01:34:41.585Z,1.70
2022-07-31T01:35:41.567Z,1.80
2022-07-31T01:36:41.551Z,1.60
2022-07-31T01:37:41.548Z,1.60
2022-07-31T01:38:45.546Z,1.60
2022-07-31T01:39:41.539Z,1.60
2022-07-31T01:40:41.512Z,1.40
2022-07-31T01:41:41.508Z,1.20
2022-07-31T01:42:41.492Z,1.80
2022-07-31T01:43:41.485Z,1.60
2022-07-31T01:44:41.558Z,1.80
2022-07-31T01:45:41.469Z,1.70
2022-07-31T01:46:41.831Z,1.80
2022-07-31T01:47:41.449Z,2.00
2022-07-31T01:48:41.435Z,1.50
2022-07-31T01:49:41.443Z,1.50
2022-07-31T01:50:42.559Z,1.50
2022-07-31T01:51:41.409Z,1.60
2022-07-31T01:52:41.396Z,1.50
2022-07-31T01:53:41.391Z,1.60
2022-07-31T01:54:41.389Z,1.80
2022-07-31T01:56:01.913Z,1.50
2022-07-31T01:56:41.363Z,1.60
2022-07-31T01:57:41.357Z,1.80
2022-07-31T01:58:41.340Z,1.80
2022-07-31T01:59:42.545Z,1.80
2022-07-31T02:00:41.406Z,1.30
2022-07-31T02:01:41.352Z,1.80
2022-07-31T02:02:42.351Z,1.70
2022-07-31T02:03:43.344Z,1.40
2022-07-31T02:04:41.294Z,1.40
2022-07-31T02:05:41.276Z,1.80
2022-07-31T02:06:41.260Z,1.60
2022-07-31T02:07:41.352Z,1.70
2022-07-31T02:08:41.240Z,1.30
2022-07-31T02:09:57.865Z,1.30
2022-07-31T02:10:41.226Z,1.70
2022-07-31T02:11:53.270Z,1.80
2022-07-31T02:12:41.213Z,1.80
2022-07-31T02:13:41.199Z,1.50
2022-07-31T02:14:41.196Z,1.80
2022-07-31T02:15:41.179Z,2.20
2022-07-31T02:16:41.160Z,1.40
2022-07-31T02:17:41.155Z,1.80
2022-07-31T02:18:41.142Z,1.60
2022-07-31T02:19:41.152Z,1.40
2022-07-31T02:20:41.132Z,1.80
2022-07-31T02:21:41.118Z,1.50
2022-07-31T02:22:41.107Z,1.70
2022-07-31T02:23:41.098Z,1.50
2022-07-31T02:24:41.100Z,1.70
2022-07-31T02:25:41.081Z,1.70
2022-07-31T02:26:41.072Z,1.80
2022-07-31T02:27:54.260Z,1.60
2022-07-31T02:28:41.051Z,1.80
2022-07-31T02:29:41.053Z,1.70
2022-07-31T02:30:41.024Z,1.70
2022-07-31T02:31:41.022Z,1.40
2022-07-31T02:32:41.012Z,1.60
2022-07-31T02:33:41.001Z,1.70
2022-07-31T02:34:41.000Z,1.90
2022-07-31T02:35:44.137Z,2.10
2022-07-31T02:36:40.967Z,1.80
2022-07-31T02:37:40.962Z,1.80
2022-07-31T02:38:40.944Z,1.50
2022-07-31T02:39:40.957Z,1.90
2022-07-31T02:40:41.176Z,1.60
2022-07-31T02:41:40.926Z,1.40
2022-07-31T02:42:40.909Z,1.90
2022-07-31T02:43:40.905Z,1.60
2022-07-31T02:44:40.902Z,1.70
2022-07-31T02:45:40.883Z,1.90
2022-07-31T02:46:40.870Z,1.60
2022-07-31T02:47:40.865Z,1.70
2022-07-31T02:48:40.853Z,1.50
2022-07-31T02:49:40.858Z,1.70
2022-07-31T02:50:40.828Z,1.70
2022-07-31T02:51:43.494Z,1.50
2022-07-31T02:52:40.823Z,1.80
2022-07-31T02:53:40.807Z,1.60
2022-07-31T02:54:40.809Z,1.60
2022-07-31T02:55:40.793Z,1.70
2022-07-31T02:56:40.781Z,1.90
2022-07-31T02:57:46.796Z,1.80
2022-07-31T02:58:40.753Z,1.40
2022-07-31T02:59:40.763Z,1.60
2022-07-31T03:00:40.789Z,2.10
2022-07-31T03:01:40.731Z,1.50
2022-07-31T03:02:40.713Z,1.60
2022-07-31T03:03:40.712Z,1.90
2022-07-31T03:04:40.708Z,2.00
2022-07-31T03:05:40.693Z,2.10
2022-07-31T03:06:40.698Z,1.80
2022-07-31T03:07:40.670Z,2.20
2022-07-31T03:08:40.658Z,1.60
2022-07-31T03:09:40.664Z,1.50
2022-07-31T03:10:40.637Z,1.60
2022-07-31T03:11:40.629Z,1.60
2022-07-31T03:12:40.625Z,1.40
2022-07-31T03:13:40.609Z,1.60
2022-07-31T03:14:40.613Z,1.80
2022-07-31T03:15:40.607Z,1.50
2022-07-31T03:16:40.576Z,1.90
2022-07-31T03:17:41.036Z,1.70
2022-07-31T03:18:40.558Z,1.80
2022-07-31T03:19:40.573Z,2.10
2022-07-31T03:20:40.539Z,2.00
2022-07-31T03:21:40.533Z,1.60
2022-07-31T03:22:40.517Z,2.10
2022-07-31T03:23:40.524Z,1.60
2022-07-31T03:24:40.512Z,1.80
2022-07-31T03:25:40.495Z,1.50
2022-07-31T03:26:40.491Z,1.70
2022-07-31T03:27:40.474Z,1.70
2022-07-31T03:28:40.460Z,2.10
2022-07-31T03:29:43.045Z,1.80
2022-07-31T03:30:40.441Z,1.80
2022-07-31T03:31:40.435Z,2.10
2022-07-31T03:32:40.423Z,2.10
2022-07-31T03:33:40.419Z,1.90
2022-07-31T03:34:40.416Z,1.80
2022-07-31T03:35:42.276Z,1.80
2022-07-31T03:36:40.397Z,1.50
2022-07-31T03:37:40.649Z,2.10
2022-07-31T03:38:42.730Z,1.90
2022-07-31T03:39:40.393Z,1.90
2022-07-31T03:40:40.343Z,1.50
2022-07-31T03:41:40.337Z,1.60
2022-07-31T03:42:40.322Z,1.40
2022-07-31T03:43:47.247Z,1.50
2022-07-31T03:44:40.327Z,1.50
2022-07-31T03:45:40.325Z,1.90
2022-07-31T03:46:40.289Z,1.70
2022-07-31T03:47:40.290Z,1.80
2022-07-31T03:48:40.264Z,1.70
2022-07-31T03:49:40.274Z,1.90
2022-07-31T03:50:40.245Z,1.50
2022-07-31T03:51:40.251Z,1.50
2022-07-31T03:52:40.229Z,1.70
2022-07-31T03:53:40.221Z,1.50
2022-07-31T03:54:40.220Z,1.80
2022-07-31T03:55:40.205Z,1.40
2022-07-31T03:56:40.190Z,1.60
2022-07-31T03:57:40.183Z,1.60
2022-07-31T03:58:40.169Z,2.00
2022-07-31T03:59:47.946Z,1.50
2022-07-31T04:00:40.155Z,1.70
2022-07-31T04:01:56.914Z,1.60
2022-07-31T04:02:40.270Z,1.80
2022-07-31T04:03:40.125Z,1.60
2022-07-31T04:04:40.122Z,1.20
2022-07-31T04:05:40.104Z,1.60
2022-07-31T04:06:40.091Z,1.80
2022-07-31T04:07:40.087Z,1.50
2022-07-31T04:08:40.077Z,2.10
2022-07-31T04:09:40.079Z,1.50
2022-07-31T04:10:40.049Z,1.50
2022-07-31T04:11:40.045Z,1.20
2022-07-31T04:12:40.055Z,1.60
2022-07-31T04:13:40.035Z,1.70
2022-07-31T04:14:40.028Z,1.30
2022-07-31T04:15:40.009Z,1.40
2022-07-31T04:16:39.994Z,1.50
2022-07-31T04:17:39.986Z,1.70
2022-07-31T04:18:39.971Z,1.40
2022-07-31T04:19:39.984Z,1.40
2022-07-31T04:20:39.968Z,1.60
2022-07-31T04:21:39.946Z,1.80
2022-07-31T04:22:39.934Z,1.50
2022-07-31T04:23:39.927Z,1.60
2022-07-31T04:24:39.937Z,1.60
2022-07-31T04:25:39.929Z,1.30
2022-07-31T04:26:39.899Z,1.80
2022-07-31T04:27:48.038Z,1.70
2022-07-31T04:28:39.881Z,1.60
2022-07-31T04:29:39.886Z,1.80
2022-07-31T04:30:39.855Z,1.50
2022-07-31T04:31:39.853Z,1.60
2022-07-31T04:32:39.836Z,1.40
2022-07-31T04:33:48.753Z,1.40
2022-07-31T04:34:39.839Z,1.70
2022-07-31T04:35:39.809Z,1.50
2022-07-31T04:36:39.797Z,1.40
2022-07-31T04:37:39.795Z,1.60
2022-07-31T04:38:39.782Z,1.60
2022-07-31T04:39:39.791Z,1.40
2022-07-31T04:40:39.806Z,1.30
2022-07-31T04:41:39.770Z,1.30
2022-07-31T04:42:39.739Z,1.30
2022-07-31T04:43:39.734Z,1.50
2022-07-31T04:44:39.718Z,1.70
2022-07-31T04:45:39.729Z,1.50
2022-07-31T04:46:39.699Z,1.70
2022-07-31T04:47:39.701Z,1.30
2022-07-31T04:48:41.341Z,1.60
2022-07-31T04:49:39.787Z,1.30
2022-07-31T04:50:39.687Z,1.30
2022-07-31T04:51:39.662Z,1.20
2022-07-31T04:52:39.644Z,1.40
2022-07-31T04:53:39.638Z,1.20
2022-07-31T04:54:39.647Z,1.60
2022-07-31T04:55:39.630Z,1.60
2022-07-31T04:56:39.600Z,1.20
2022-07-31T04:57:39.594Z,1.10
2022-07-31T04:58:39.607Z,1.70
2022-07-31T04:59:58.968Z,1.50
2022-07-31T05:00:39.589Z,1.40
2022-07-31T05:01:39.620Z,1.40
2022-07-31T05:02:39.550Z,1.80
2022-07-31T05:03:39.536Z,1.20
2022-07-31T05:04:39.535Z,1.40
2022-07-31T05:05:39.526Z,1.90
2022-07-31T05:06:39.512Z,1.20
2022-07-31T05:07:39.495Z,1.70
2022-07-31T05:08:39.490Z,1.30
2022-07-31T05:09:39.474Z,2.00
2022-07-31T05:10:39.484Z,1.50
2022-07-31T05:11:39.459Z,1.60
2022-07-31T05:12:39.449Z,1.20
2022-07-31T05:13:39.437Z,1.60
2022-07-31T05:14:39.429Z,1.60
2022-07-31T05:15:39.431Z,1.60
2022-07-31T05:16:39.413Z,1.30
2022-07-31T05:17:39.398Z,1.30
2022-07-31T05:18:39.394Z,1.40
2022-07-31T05:19:39.381Z,1.50
2022-07-31T05:20:39.394Z,1.40
2022-07-31T05:21:49.646Z,1.40
2022-07-31T05:22:39.363Z,1.70
2022-07-31T05:23:39.344Z,1.20
2022-07-31T05:24:39.354Z,1.60
2022-07-31T05:25:39.336Z,1.60
2022-07-31T05:26:39.313Z,1.80
2022-07-31T05:27:41.342Z,1.60
2022-07-31T05:28:39.294Z,1.60
2022-07-31T05:29:39.284Z,1.30
2022-07-31T05:30:39.332Z,1.40
2022-07-31T05:31:39.262Z,1.50
2022-07-31T05:32:39.262Z,1.10
2022-07-31T05:33:39.244Z,1.30
2022-07-31T05:34:39.239Z,1.10
2022-07-31T05:35:39.238Z,1.00
2022-07-31T05:36:39.220Z,1.30
2022-07-31T05:37:39.220Z,1.30
2022-07-31T05:38:39.201Z,1.40
2022-07-31T05:39:39.187Z,1.40
2022-07-31T05:40:39.196Z,1.30
2022-07-31T05:41:39.166Z,1.30
2022-07-31T05:42:39.160Z,1.30
2022-07-31T05:43:39.158Z,1.30
2022-07-31T05:44:39.137Z,1.40
2022-07-31T05:45:39.134Z,1.30
2022-07-31T05:46:39.119Z,1.50
2022-07-31T05:47:40.457Z,1.30
2022-07-31T05:48:39.101Z,1.40
2022-07-31T05:49:39.084Z,1.40
2022-07-31T05:50:39.104Z,1.20
2022-07-31T05:51:39.063Z,1.40
2022-07-31T05:52:39.066Z,1.30
2022-07-31T05:53:39.052Z,1.10
2022-07-31T05:54:39.063Z,1.60
2022-07-31T05:55:39.043Z,1.20
2022-07-31T05:56:39.026Z,1.50
2022-07-31T05:57:39.012Z,1.10
2022-07-31T05:58:39.004Z,1.50
2022-07-31T05:59:38.991Z,1.40
2022-07-31T06:00:39.011Z,1.30
2022-07-31T06:01:39.080Z,1.30
2022-07-31T06:02:38.977Z,1.30
2022-07-31T06:03:51.645Z,1.60
2022-07-31T06:04:38.962Z,1.30
2022-07-31T06:05:38.953Z,1.30
2022-07-31T06:06:38.934Z,1.60
2022-07-31T06:07:38.911Z,1.30
2022-07-31T06:08:38.910Z,1.30
2022-07-31T06:09:38.890Z,1.00
2022-07-31T06:10:38.915Z,1.20
2022-07-31T06:11:38.882Z,1.20
2022-07-31T06:12:38.870Z,1.20
2022-07-31T06:13:38.856Z,1.40
2022-07-31T06:14:38.850Z,1.40
2022-07-31T06:15:38.843Z,1.40
2022-07-31T06:16:38.846Z,1.20
2022-07-31T06:17:44.807Z,1.30
2022-07-31T06:18:38.812Z,1.30
2022-07-31T06:19:38.799Z,1.20
2022-07-31T06:20:39.117Z,1.40
2022-07-31T06:21:38.781Z,1.20
2022-07-31T06:22:38.769Z,1.40
2022-07-31T06:23:38.758Z,1.30
2022-07-31T06:24:38.751Z,1.30
2022-07-31T06:25:39.229Z,1.20
2022-07-31T06:26:38.734Z,1.60
2022-07-31T06:27:38.716Z,1.20
2022-07-31T06:28:47.934Z,1.60
2022-07-31T06:29:40.601Z,1.20
2022-07-31T06:30:38.703Z,1.30
2022-07-31T06:31:38.681Z,1.20
2022-07-31T06:32:38.675Z,1.40
2022-07-31T06:33:38.664Z,1.20
2022-07-31T06:34:38.653Z,1.20
2022-07-31T06:35:38.652Z,1.20
2022-07-31T06:36:38.635Z,1.30
2022-07-31T06:37:38.625Z,1.40
2022-07-31T06:38:38.611Z,1.00
2022-07-31T06:39:54.812Z,1.20
2022-07-31T06:40:38.619Z,1.20
2022-07-31T06:41:38.580Z,1.10
2022-07-31T06:42:38.576Z,1.00
2022-07-31T06:43:38.565Z,1.20
2022-07-31T06:44:43.200Z,1.20
2022-07-31T06:45:51.563Z,1.70
2022-07-31T06:46:48.745Z,1.70
2022-07-31T06:47:38.530Z,1.30
2022-07-31T06:48:38.516Z,1.30
2022-07-31T06:49:38.584Z,1.10
2022-07-31T06:50:38.525Z,1.40
2022-07-31T06:51:38.491Z,1.80
2022-07-31T06:52:38.480Z,1.60
2022-07-31T06:53:38.516Z,1.30
2022-07-31T06:54:38.460Z,1.20
2022-07-31T06:55:44.261Z,1.00
2022-07-31T06:56:38.470Z,1.30
2022-07-31T06:57:38.426Z,1.50
2022-07-31T06:58:38.428Z,1.30
2022-07-31T06:59:40.525Z,1.00
2022-07-31T07:00:38.403Z,1.20
2022-07-31T07:01:38.477Z,1.40
2022-07-31T07:02:38.388Z,1.40
2022-07-31T07:03:38.368Z,1.30
2022-07-31T07:05:00.048Z,1.40
2022-07-31T07:05:38.353Z,1.10
2022-07-31T07:06:38.372Z,1.30
2022-07-31T07:07:38.330Z,1.50
2022-07-31T07:08:38.328Z,1.30
2022-07-31T07:09:38.307Z,1.30
2022-07-31T07:10:38.324Z,1.20
2022-07-31T07:11:38.294Z,1.30
2022-07-31T07:12:38.303Z,1.50
2022-07-31T07:13:46.019Z,0.90
2022-07-31T07:14:38.269Z,1.30
2022-07-31T07:15:38.274Z,1.40
2022-07-31T07:16:38.247Z,1.60
2022-07-31T07:17:38.234Z,1.50
2022-07-31T07:18:38.239Z,1.40
2022-07-31T07:19:38.212Z,1.20
2022-07-31T07:20:38.221Z,1.10
2022-07-31T07:21:38.189Z,1.40
2022-07-31T07:22:38.197Z,1.30
2022-07-31T07:23:38.172Z,1.10
2022-07-31T07:24:38.166Z,1.00
2022-07-31T07:25:38.172Z,1.10
2022-07-31T07:26:38.149Z,1.40
2022-07-31T07:27:38.132Z,1.10
2022-07-31T07:28:38.129Z,1.40
2022-07-31T07:29:38.129Z,1.10
2022-07-31T07:30:38.106Z,1.30
2022-07-31T07:31:38.108Z,1.50
2022-07-31T07:32:38.088Z,1.20
2022-07-31T07:33:41.418Z,1.20
2022-07-31T07:34:38.072Z,1.10
2022-07-31T07:35:38.091Z,1.30
2022-07-31T07:36:38.069Z,0.80
2022-07-31T07:37:38.924Z,1.20
2022-07-31T07:38:38.032Z,1.10
2022-07-31T07:39:38.018Z,1.20
2022-07-31T07:40:38.008Z,1.20
2022-07-31T07:41:38.010Z,1.10
2022-07-31T07:42:37.994Z,1.10
2022-07-31T07:43:37.977Z,1.10
2022-07-31T07:44:37.982Z,1.00
2022-07-31T07:45:37.958Z,1.00
2022-07-31T07:46:37.976Z,0.90
2022-07-31T07:48:05.450Z,1.20
2022-07-31T07:48:37.939Z,1.20
2022-07-31T07:49:37.919Z,1.10
2022-07-31T07:50:37.927Z,0.90
2022-07-31T07:51:37.913Z,1.00
2022-07-31T07:52:41.029Z,0.90
2022-07-31T07:53:37.890Z,0.80
2022-07-31T07:54:37.882Z,1.00
2022-07-31T07:55:37.932Z,1.10
2022-07-31T07:56:37.867Z,1.10
2022-07-31T07:57:37.838Z,0.90
2022-07-31T07:58:37.833Z,0.90
2022-07-31T07:59:37.821Z,1.10
2022-07-31T08:00:37.812Z,1.10
2022-07-31T08:01:37.897Z,0.80
2022-07-31T08:02:37.796Z,1.10
2022-07-31T08:03:48.168Z,1.00
2022-07-31T08:04:37.783Z,0.70
2022-07-31T08:05:37.762Z,0.90
2022-07-31T08:06:37.768Z,0.90
2022-07-31T08:07:42.649Z,0.90
2022-07-31T08:08:37.743Z,0.90
2022-07-31T08:09:37.736Z,0.80
2022-07-31T08:10:37.719Z,1.20
2022-07-31T08:11:37.720Z,1.00
2022-07-31T08:12:37.698Z,0.90
2022-07-31T08:13:38.128Z,0.90
2022-07-31T08:14:37.676Z,0.80
2022-07-31T08:15:37.669Z,0.80
2022-07-31T08:16:37.708Z,0.90
2022-07-31T08:17:37.658Z,1.00
2022-07-31T08:18:37.641Z,0.80
2022-07-31T08:19:37.625Z,1.00
2022-07-31T08:20:37.625Z,0.90
2022-07-31T08:21:37.611Z,0.90
2022-07-31T08:22:37.620Z,0.70
2022-07-31T08:23:37.587Z,0.90
2022-07-31T08:24:37.581Z,0.90
2022-07-31T08:25:37.589Z,1.20
2022-07-31T08:26:37.562Z,0.80
2022-07-31T08:27:40.462Z,0.80
2022-07-31T08:28:37.542Z,0.70
2022-07-31T08:29:37.529Z,0.90
2022-07-31T08:30:37.522Z,1.00
2022-07-31T08:31:37.525Z,1.10
2022-07-31T08:32:37.521Z,1.00
2022-07-31T08:33:37.491Z,0.90
2022-07-31T08:34:41.808Z,0.90
2022-07-31T08:35:37.468Z,0.90
2022-07-31T08:36:37.472Z,0.70
2022-07-31T08:37:51.677Z,1.10
2022-07-31T08:38:37.453Z,0.80
2022-07-31T08:39:37.430Z,0.90
2022-07-31T08:40:43.586Z,1.10
2022-07-31T08:41:37.417Z,0.80
2022-07-31T08:42:37.428Z,0.80
2022-07-31T08:44:00.279Z,1.00
2022-07-31T08:44:37.394Z,0.80
2022-07-31T08:45:40.248Z,0.90
2022-07-31T08:46:37.367Z,0.80
2022-07-31T08:47:37.364Z,1.00
2022-07-31T08:48:37.373Z,0.90
2022-07-31T08:49:37.418Z,0.90
2022-07-31T08:50:37.330Z,0.80
2022-07-31T08:51:51.136Z,0.90
2022-07-31T08:52:37.324Z,0.90
2022-07-31T08:53:37.295Z,0.90
2022-07-31T08:54:37.290Z,1.10
2022-07-31T08:55:55.131Z,1.10
2022-07-31T08:56:37.279Z,1.00
2022-07-31T08:57:37.267Z,1.20
2022-07-31T08:58:42.864Z,1.50
2022-07-31T08:59:37.251Z,1.30
2022-07-31T09:00:37.236Z,1.60
2022-07-31T09:01:37.401Z,1.00
2022-07-31T09:02:37.232Z,1.00
2022-07-31T09:03:37.202Z,1.10
2022-07-31T09:04:37.203Z,1.10
2022-07-31T09:05:42.055Z,1.00
2022-07-31T09:06:37.191Z,0.70
2022-07-31T09:07:37.195Z,0.90
2022-07-31T09:08:37.163Z,0.70
2022-07-31T09:09:51.186Z,0.70
2022-07-31T09:10:37.147Z,0.80
2022-07-31T09:11:37.139Z,1.00
2022-07-31T09:12:37.143Z,0.90
2022-07-31T09:13:37.112Z,1.10
2022-07-31T09:14:37.097Z,1.00
2022-07-31T09:15:37.096Z,1.30
2022-07-31T09:16:37.081Z,1.10
2022-07-31T09:17:37.094Z,1.40
2022-07-31T09:18:37.061Z,1.40
2022-07-31T09:19:53.958Z,1.30
2022-07-31T09:20:43.046Z,1.20
2022-07-31T09:21:37.026Z,1.20
2022-07-31T09:22:37.027Z,1.50
2022-07-31T09:23:37.005Z,1.30
2022-07-31T09:24:39.555Z,1.20
2022-07-31T09:25:36.985Z,1.20
2022-07-31T09:26:36.973Z,1.20
2022-07-31T09:27:36.982Z,1.20
2022-07-31T09:28:36.959Z,1.00
2022-07-31T09:29:36.945Z,1.10
2022-07-31T09:30:55.630Z,1.00
2022-07-31T09:31:36.934Z,1.20
2022-07-31T09:32:36.931Z,1.20
2022-07-31T09:33:36.905Z,1.20
2022-07-31T09:34:36.896Z,1.10
2022-07-31T09:35:36.889Z,0.90
2022-07-31T09:36:36.877Z,1.20
2022-07-31T09:37:36.888Z,1.10
2022-07-31T09:38:36.853Z,1.10
2022-07-31T09:39:36.850Z,1.00
2022-07-31T09:40:40.001Z,0.90
2022-07-31T09:42:01.058Z,0.80
2022-07-31T09:42:36.834Z,1.10
2022-07-31T09:43:46.195Z,0.80
2022-07-31T09:44:36.806Z,1.10
2022-07-31T09:45:36.798Z,0.70
2022-07-31T09:46:36.788Z,0.90
2022-07-31T09:47:36.795Z,0.90
2022-07-31T09:48:36.761Z,0.90
2022-07-31T09:49:36.905Z,0.80
2022-07-31T09:50:36.745Z,0.70
2022-07-31T09:51:36.751Z,0.80
2022-07-31T09:52:37.402Z,0.90
2022-07-31T09:53:39.327Z,0.70
2022-07-31T09:54:36.712Z,1.10
2022-07-31T09:55:36.716Z,0.80
2022-07-31T09:56:36.689Z,1.10
2022-07-31T09:57:36.700Z,1.00
2022-07-31T09:58:36.667Z,0.80
2022-07-31T09:59:36.662Z,1.20
2022-07-31T10:00:36.716Z,1.00
2022-07-31T10:01:36.674Z,1.00
2022-07-31T10:02:36.641Z,1.30
2022-07-31T10:03:36.623Z,1.10
2022-07-31T10:04:36.606Z,1.00
2022-07-31T10:05:36.603Z,0.90
2022-07-31T10:06:36.591Z,1.00
2022-07-31T10:07:36.602Z,0.90
2022-07-31T10:08:36.567Z,1.20
2022-07-31T10:09:36.568Z,1.10
2022-07-31T10:10:36.549Z,1.10
2022-07-31T10:11:36.545Z,1.20
2022-07-31T10:12:36.544Z,0.90
2022-07-31T10:13:36.528Z,0.80
2022-07-31T10:14:36.509Z,1.20
2022-07-31T10:15:36.504Z,0.80
2022-07-31T10:16:36.493Z,1.10
2022-07-31T10:17:36.500Z,1.30
2022-07-31T10:18:38.604Z,0.90
2022-07-31T10:19:36.466Z,0.90
2022-07-31T10:20:36.449Z,0.90
2022-07-31T10:21:36.446Z,1.00
2022-07-31T10:22:36.456Z,1.00
2022-07-31T10:23:36.425Z,0.90
2022-07-31T10:24:36.446Z,0.90
2022-07-31T10:25:36.409Z,1.20
2022-07-31T10:26:59.104Z,1.10
2022-07-31T10:27:39.632Z,0.90
2022-07-31T10:28:36.402Z,0.80
2022-07-31T10:29:36.378Z,0.90
2022-07-31T10:30:36.356Z,0.90
2022-07-31T10:31:36.352Z,1.00
2022-07-31T10:32:36.338Z,1.20
2022-07-31T10:33:44.925Z,1.00
2022-07-31T10:34:36.324Z,1.00
2022-07-31T10:35:36.382Z,1.10
2022-07-31T10:36:36.296Z,1.00
2022-07-31T10:37:36.297Z,1.30
2022-07-31T10:38:38.333Z,1.00
2022-07-31T10:39:36.271Z,1.20
2022-07-31T10:40:36.260Z,1.20
2022-07-31T10:41:36.261Z,1.00
2022-07-31T10:42:36.242Z,1.00
2022-07-31T10:43:36.254Z,1.10
2022-07-31T10:44:38.660Z,1.00
2022-07-31T10:45:36.214Z,1.30
2022-07-31T10:46:36.203Z,1.30
2022-07-31T10:47:36.199Z,1.40
2022-07-31T10:48:36.191Z,1.10
2022-07-31T10:49:36.264Z,1.00
2022-07-31T10:50:36.162Z,1.60
2022-07-31T10:51:36.157Z,1.30
2022-07-31T10:52:36.156Z,1.00
2022-07-31T10:53:51.329Z,1.20
2022-07-31T10:54:36.141Z,1.10
2022-07-31T10:55:36.128Z,1.00
2022-07-31T10:56:36.103Z,1.00
2022-07-31T10:57:55.991Z,0.80
2022-07-31T10:58:36.108Z,1.10
2022-07-31T10:59:36.088Z,1.30
2022-07-31T11:00:36.067Z,1.00
2022-07-31T11:01:36.096Z,1.10
2022-07-31T11:02:36.048Z,1.10
2022-07-31T11:03:36.056Z,1.00
2022-07-31T11:04:36.030Z,1.00
2022-07-31T11:06:01.652Z,1.00
2022-07-31T11:06:36.015Z,1.60
2022-07-31T11:07:36.003Z,1.40
2022-07-31T11:08:36.005Z,1.10
2022-07-31T11:09:50.546Z,1.50
2022-07-31T11:10:35.976Z,0.90
2022-07-31T11:11:35.963Z,1.10
2022-07-31T11:12:35.949Z,1.20
2022-07-31T11:13:36.975Z,1.10
2022-07-31T11:14:35.930Z,1.10
2022-07-31T11:15:35.924Z,1.10
2022-07-31T11:16:35.911Z,0.80
2022-07-31T11:18:21.290Z,1.10
2022-07-31T11:18:35.915Z,1.20
2022-07-31T11:19:35.902Z,1.10
2022-07-31T11:20:35.878Z,1.10
2022-07-31T11:21:38.840Z,1.20
2022-07-31T11:22:35.852Z,1.10
2022-07-31T11:23:35.861Z,1.10
2022-07-31T11:24:35.833Z,1.00
2022-07-31T11:25:35.830Z,1.30
2022-07-31T11:26:41.366Z,1.10
2022-07-31T11:27:35.820Z,1.30
2022-07-31T11:28:35.807Z,1.10
2022-07-31T11:29:58.898Z,1.00
2022-07-31T11:30:35.783Z,0.90
2022-07-31T11:31:35.771Z,1.50
2022-07-31T11:32:35.755Z,1.00
2022-07-31T11:33:40.305Z,1.00
2022-07-31T11:34:35.742Z,1.10
2022-07-31T11:35:35.732Z,0.90
2022-07-31T11:36:35.736Z,1.00
2022-07-31T11:37:56.195Z,1.10
2022-07-31T11:38:35.731Z,1.10
2022-07-31T11:39:36.977Z,1.10
2022-07-31T11:40:35.684Z,1.20
2022-07-31T11:41:44.178Z,1.00
2022-07-31T11:42:36.335Z,1.00
2022-07-31T11:43:35.668Z,1.20
2022-07-31T11:44:35.679Z,1.20
2022-07-31T11:45:35.635Z,1.10
2022-07-31T11:46:35.623Z,1.30
2022-07-31T11:48:11.263Z,1.10
2022-07-31T11:48:41.006Z,1.40
2022-07-31T11:49:48.123Z,1.20
2022-07-31T11:50:35.588Z,1.30
2022-07-31T11:51:35.583Z,1.20
2022-07-31T11:52:37.738Z,1.20
2022-07-31T11:53:35.691Z,1.00
2022-07-31T11:54:35.543Z,1.00
2022-07-31T11:55:35.539Z,1.10
2022-07-31T11:56:35.523Z,0.80
2022-07-31T11:57:51.180Z,1.10
2022-07-31T11:58:35.524Z,1.20
2022-07-31T11:59:45.469Z,1.10
2022-07-31T12:00:35.492Z,1.40
2022-07-31T12:01:35.480Z,1.20
2022-07-31T12:02:35.563Z,1.00
2022-07-31T12:03:35.471Z,1.20
2022-07-31T12:04:35.444Z,1.10
2022-07-31T12:05:37.828Z,1.40
2022-07-31T12:06:36.542Z,1.00
2022-07-31T12:07:35.425Z,1.20
2022-07-31T12:08:35.426Z,1.50
2022-07-31T12:10:02.156Z,1.30
2022-07-31T12:10:35.400Z,1.10
2022-07-31T12:11:35.383Z,1.40
2022-07-31T12:12:35.371Z,1.30
2022-07-31T12:13:35.382Z,1.10
2022-07-31T12:14:35.357Z,1.00
2022-07-31T12:15:35.352Z,1.30
2022-07-31T12:16:35.328Z,1.40
2022-07-31T12:17:35.323Z,1.20
2022-07-31T12:18:35.319Z,1.00
2022-07-31T12:19:38.701Z,1.10
2022-07-31T12:20:36.802Z,1.20
2022-07-31T12:21:35.286Z,1.30
2022-07-31T12:22:35.272Z,1.30
2022-07-31T12:23:40.283Z,1.10
2022-07-31T12:24:35.261Z,1.30
2022-07-31T12:25:35.249Z,1.20
2022-07-31T12:26:35.234Z,1.10
2022-07-31T12:27:35.231Z,1.10
2022-07-31T12:28:35.229Z,1.40
2022-07-31T12:29:35.206Z,1.10
2022-07-31T12:30:35.194Z,1.30
2022-07-31T12:31:35.187Z,1.30
2022-07-31T12:32:35.215Z,1.00
2022-07-31T12:33:35.185Z,1.40
2022-07-31T12:34:35.167Z,1.30
2022-07-31T12:35:41.700Z,1.40
2022-07-31T12:36:35.147Z,1.20
2022-07-31T12:37:35.131Z,1.20
2022-07-31T12:38:45.341Z,1.50
2022-07-31T12:39:47.445Z,1.20
2022-07-31T12:40:35.107Z,1.30
2022-07-31T12:41:35.148Z,1.30
2022-07-31T12:42:39.282Z,1.50
2022-07-31T12:43:35.097Z,1.20
2022-07-31T12:44:35.066Z,1.40
2022-07-31T12:45:35.054Z,1.00
2022-07-31T12:46:35.047Z,1.30
2022-07-31T12:47:35.034Z,1.30
2022-07-31T12:48:40.128Z,0.90
2022-07-31T12:49:35.095Z,1.10
2022-07-31T12:50:35.003Z,1.30
2022-07-31T12:51:44.635Z,1.20
2022-07-31T12:52:34.988Z,1.20
2022-07-31T12:53:34.985Z,1.60
2022-07-31T12:54:39.328Z,1.10
2022-07-31T12:55:34.958Z,1.40
2022-07-31T12:56:34.941Z,1.30
2022-07-31T12:57:34.949Z,1.20
2022-07-31T12:58:35.024Z,1.10
2022-07-31T12:59:34.921Z,1.10
2022-07-31T13:00:39.630Z,1.30
2022-07-31T13:01:35.005Z,1.20
2022-07-31T13:02:34.883Z,1.10
2022-07-31T13:03:38.963Z,1.20
2022-07-31T13:04:34.872Z,1.20
2022-07-31T13:05:34.863Z,1.10
2022-07-31T13:06:34.843Z,1.00
2022-07-31T13:07:34.848Z,0.80
2022-07-31T13:08:34.838Z,1.50
2022-07-31T13:09:34.822Z,1.10
2022-07-31T13:10:34.811Z,1.40
2022-07-31T13:11:45.983Z,1.20
2022-07-31T13:12:34.793Z,1.20
2022-07-31T13:13:34.807Z,1.20
2022-07-31T13:14:34.773Z,1.00
2022-07-31T13:15:34.762Z,1.30
2022-07-31T13:16:34.758Z,1.20
2022-07-31T13:17:34.747Z,1.10
2022-07-31T13:18:34.746Z,1.00